Time;durP1;ratioP1;P1;durP2;ratioP2;P2;SDS_P1;SDS_P2;PMS_P1;PMS_P2;Temp;Humidity;BMP_temperature;BMP_pressure;BME280_temperature;BME280_humidity;BME280_pressure;Samples;Min_cycle;Max_cycle;Signal;HPM_P1;HPM_P2
2022/06/02 00:02:39;;;;;;;14.53;4.43;;;;;;;;;;5013014;28;20488;-62
2022/06/02 00:05:17;;;;;;;6.20;2.63;;;;;;;;;;5013083;28;20034;-61
2022/06/02 00:07:55;;;;;;;9.63;2.83;;;;;;;;;;5017686;28;20034;-62
2022/06/02 00:10:30;;;;;;;4.50;2.35;;;;;;;;;;5012909;28;20549;-62
2022/06/02 00:13:08;;;;;;;6.25;2.60;;;;;;;;;;5012566;28;20137;-62
2022/06/02 00:15:34;;;;;;;8.85;3.05;;;;;;;;;;5012380;28;20042;-61
2022/06/02 00:18:03;;;;;;;5.78;2.70;;;;;;;;;;5012576;28;20113;-62
2022/06/02 00:20:47;;;;;;;9.10;2.58;;;;;;;;;;5012660;28;20036;-61
2022/06/02 00:23:20;;;;;;;5.28;2.17;;;;;;;;;;5042271;28;20086;-62
2022/06/02 00:25:52;;;;;;;4.93;2.25;;;;;;;;;;5053921;28;20037;-62
2022/06/02 00:28:24;;;;;;;5.80;3.03;;;;;;;;;;5054146;28;20087;-62
2022/06/02 00:30:54;;;;;;;4.47;2.40;;;;;;;;;;5054297;28;20492;-62
2022/06/02 00:33:46;;;;;;;7.40;3.65;;;;;;;;;;5054321;28;20091;-62
2022/06/02 00:36:18;;;;;;;5.28;3.03;;;;;;;;;;5052670;28;20036;-62
2022/06/02 00:38:44;;;;;;;5.50;2.92;;;;;;;;;;5055025;28;20048;-62
2022/06/02 00:41:23;;;;;;;12.15;3.63;;;;;;;;;;5057041;28;20087;-62
2022/06/02 00:43:55;;;;;;;5.47;2.90;;;;;;;;;;5054101;28;20056;-62
2022/06/02 00:46:21;;;;;;;3.90;2.47;;;;;;;;;;5054284;28;20039;-62
2022/06/02 00:48:50;;;;;;;7.18;2.72;;;;;;;;;;5053883;28;20025;-62
2022/06/02 00:51:22;;;;;;;8.68;3.67;;;;;;;;;;5062238;28;20035;-62
2022/06/02 00:59:57;;;;;;;9.75;3.20;;;;;;;;;;5051104;28;20107;-62
2022/06/02 01:02:24;;;;;;;5.25;3.13;;;;;;;;;;5051685;28;20040;-62
2022/06/02 01:04:51;;;;;;;7.57;3.08;;;;;;;;;;5051325;28;20288;-62
2022/06/02 01:07:29;;;;;;;4.20;2.78;;;;;;;;;;5051639;28;20147;-62
2022/06/02 01:10:10;;;;;;;5.72;3.25;;;;;;;;;;5062722;28;20509;-62
2022/06/02 01:12:51;;;;;;;6.22;3.08;;;;;;;;;;5051231;28;20039;-62
2022/06/02 01:15:40;;;;;;;6.22;2.78;;;;;;;;;;5051383;28;20099;-62
2022/06/02 01:18:29;;;;;;;3.95;2.70;;;;;;;;;;5030954;28;20041;-62
2022/06/02 01:21:14;;;;;;;8.70;3.03;;;;;;;;;;5050766;28;20401;-62
2022/06/02 01:23:58;;;;;;;5.22;3.10;;;;;;;;;;5050911;28;20071;-62
2022/06/02 01:26:27;;;;;;;9.10;3.45;;;;;;;;;;5050917;28;20420;-62
2022/06/02 01:28:53;;;;;;;5.15;3.13;;;;;;;;;;5050911;28;20798;-62
2022/06/02 01:31:35;;;;;;;5.75;2.70;;;;;;;;;;5051081;28;20421;-62
2022/06/02 01:34:20;;;;;;;5.78;2.88;;;;;;;;;;5052363;28;20041;-61
2022/06/02 01:36:46;;;;;;;8.57;3.30;;;;;;;;;;5070805;28;20385;-61
2022/06/02 01:39:30;;;;;;;7.15;2.90;;;;;;;;;;5059171;28;20233;-61
2022/06/02 01:42:09;;;;;;;5.50;2.95;;;;;;;;;;5057647;28;20478;-62
2022/06/02 01:44:52;;;;;;;6.57;3.17;;;;;;;;;;5052795;28;20024;-62
2022/06/02 01:47:26;;;;;;;9.60;3.10;;;;;;;;;;5042322;28;20029;-62
2022/06/02 01:50:12;;;;;;;4.88;2.85;;;;;;;;;;5050992;28;20037;-61
2022/06/02 01:52:57;;;;;;;6.68;2.92;;;;;;;;;;5052636;28;20040;-62
2022/06/02 01:55:34;;;;;;;4.97;2.97;;;;;;;;;;5052411;28;20091;-62
2022/06/02 01:58:00;;;;;;;8.60;3.45;;;;;;;;;;5052098;28;20123;-62
2022/06/02 02:00:27;;;;;;;8.75;2.70;;;;;;;;;;5052544;28;20033;-62
2022/06/02 02:03:04;;;;;;;4.10;2.70;;;;;;;;;;5052655;28;20040;-61
2022/06/02 02:05:48;;;;;;;5.30;4.07;;;;;;;;;;5052685;28;20442;-62
2022/06/02 02:08:33;;;;;;;7.68;2.72;;;;;;;;;;5065007;28;20048;-62
2022/06/02 02:11:02;;;;;;;6.50;2.95;;;;;;;;;;5057477;28;20036;-62
2022/06/02 02:13:41;;;;;;;4.80;2.92;;;;;;;;;;5052599;28;20029;-62
2022/06/02 02:16:26;;;;;;;5.28;2.75;;;;;;;;;;5052227;28;20029;-62
2022/06/02 02:18:58;;;;;;;5.38;2.60;;;;;;;;;;5052175;28;20199;-62
2022/06/02 02:21:32;;;;;;;6.30;2.63;;;;;;;;;;5052456;28;20040;-62
2022/06/02 02:24:04;;;;;;;6.60;2.78;;;;;;;;;;5051881;28;20025;-62
2022/06/02 02:26:36;;;;;;;7.63;2.95;;;;;;;;;;5052327;28;20105;-62
2022/06/02 02:29:05;;;;;;;5.93;2.53;;;;;;;;;;5051970;28;20033;-61
2022/06/02 02:31:39;;;;;;;3.75;2.60;;;;;;;;;;5052272;28;20503;-62
2022/06/02 02:34:24;;;;;;;4.93;2.45;;;;;;;;;;5061491;28;20024;-62
2022/06/02 02:36:54;;;;;;;4.15;2.30;;;;;;;;;;5052178;28;20033;-62
2022/06/02 02:39:23;;;;;;;4.65;2.80;;;;;;;;;;5055334;28;20032;-62
2022/06/02 02:41:55;;;;;;;5.88;3.22;;;;;;;;;;5051123;28;20036;-62
2022/06/02 02:44:43;;;;;;;5.10;2.97;;;;;;;;;;5052443;28;20053;-62
2022/06/02 02:47:09;;;;;;;6.40;2.55;;;;;;;;;;5051794;28;20442;-62
2022/06/02 02:49:41;;;;;;;6.28;3.03;;;;;;;;;;5051823;28;20025;-62
2022/06/02 02:52:22;;;;;;;5.20;3.10;;;;;;;;;;5064824;28;20477;-62
2022/06/02 02:54:51;;;;;;;10.05;3.40;;;;;;;;;;5051659;28;20045;-62
2022/06/02 02:57:27;;;;;;;5.88;3.22;;;;;;;;;;5051406;28;20018;-62
2022/06/02 03:00:02;;;;;;;6.28;4.40;;;;;;;;;;5051316;28;20041;-62
2022/06/02 03:02:28;;;;;;;7.78;3.03;;;;;;;;;;5071690;28;20079;-61
2022/06/02 03:04:54;;;;;;;5.72;2.90;;;;;;;;;;5051741;28;20025;-62
2022/06/02 03:07:21;;;;;;;4.07;3.05;;;;;;;;;;5051314;28;20556;-62
2022/06/02 03:09:53;;;;;;;5.72;3.05;;;;;;;;;;5051353;28;20064;-62
2022/06/02 03:12:26;;;;;;;13.75;3.20;;;;;;;;;;5036211;28;20551;-62
2022/06/02 03:15:11;;;;;;;4.75;2.85;;;;;;;;;;5051649;28;20044;-62
2022/06/02 03:17:43;;;;;;;4.97;2.90;;;;;;;;;;5051595;28;20037;-61
2022/06/02 03:20:21;;;;;;;4.17;3.10;;;;;;;;;;5051097;28;20090;-61
2022/06/02 03:22:56;;;;;;;6.68;2.80;;;;;;;;;;5051158;28;20036;-62
2022/06/02 03:25:40;;;;;;;5.15;2.85;;;;;;;;;;5051654;28;20029;-62
2022/06/02 03:28:16;;;;;;;3.58;2.70;;;;;;;;;;5051068;28;20477;-62
2022/06/02 03:30:42;;;;;;;4.63;2.30;;;;;;;;;;5051552;28;20033;-62
2022/06/02 03:33:14;;;;;;;5.85;2.70;;;;;;;;;;5051210;28;20059;-62
2022/06/02 03:36:00;;;;;;;6.97;2.65;;;;;;;;;;5051099;28;20481;-61
2022/06/02 03:38:44;;;;;;;5.78;3.00;;;;;;;;;;5009216;28;20126;-61
2022/06/02 03:41:30;;;;;;;6.43;2.50;;;;;;;;;;5008705;28;20069;-62
2022/06/02 03:44:05;;;;;;;5.75;2.80;;;;;;;;;;5009365;28;20058;-62
2022/06/02 03:46:34;;;;;;;3.28;2.42;;;;;;;;;;5008918;28;20395;-62
2022/06/02 03:49:19;;;;;;;5.03;2.65;;;;;;;;;;5009389;28;20637;-62
2022/06/02 03:51:53;;;;;;;3.65;2.33;;;;;;;;;;5009430;28;20490;-62
2022/06/02 03:54:37;;;;;;;5.15;2.97;;;;;;;;;;5009201;28;20030;-62
2022/06/02 03:57:03;;;;;;;5.72;2.45;;;;;;;;;;5009225;28;20042;-61
2022/06/02 03:59:45;;;;;;;6.88;2.70;;;;;;;;;;5009388;28;20049;-62
2022/06/02 04:02:13;;;;;;;10.52;2.88;;;;;;;;;;5002937;28;20056;-62
2022/06/02 04:04:58;;;;;;;6.35;2.78;;;;;;;;;;5006981;28;20021;-62
2022/06/02 04:07:42;;;;;;;6.72;3.50;;;;;;;;;;5009835;28;20503;-62
2022/06/02 04:10:13;;;;;;;4.90;2.90;;;;;;;;;;5006720;28;20041;-62
2022/06/02 04:15:33;;;;;;;5.18;2.28;;;;;;;;;;5031919;28;20045;-62
2022/06/02 04:18:09;;;;;;;4.88;2.40;;;;;;;;;;5054548;28;20039;-62
2022/06/02 04:20:35;;;;;;;2.55;2.08;;;;;;;;;;5050894;28;20049;-62
2022/06/02 04:23:20;;;;;;;6.93;2.25;;;;;;;;;;5054435;28;20107;-62
2022/06/02 04:25:55;;;;;;;5.10;2.50;;;;;;;;;;5054507;28;20033;-62
2022/06/02 04:28:24;;;;;;;6.80;2.65;;;;;;;;;;5054117;28;20393;-62
2022/06/02 04:31:09;;;;;;;5.45;2.83;;;;;;;;;;5054509;28;20044;-62
2022/06/02 04:33:37;;;;;;;6.78;3.47;;;;;;;;;;5047629;28;20022;-62
2022/06/02 04:36:29;;;;;;;5.97;2.75;;;;;;;;;;5051024;28;20040;-62
2022/06/02 04:39:18;;;;;;;7.38;3.28;;;;;;;;;;5038324;28;20518;-62
2022/06/02 04:41:48;;;;;;;7.28;3.30;;;;;;;;;;5012187;28;20112;-62
2022/06/02 04:44:33;;;;;;;4.03;3.13;;;;;;;;;;5010882;28;20049;-62
2022/06/02 04:47:23;;;;;;;6.53;3.30;;;;;;;;;;5002336;28;20045;-62
2022/06/02 04:50:03;;;;;;;6.50;3.63;;;;;;;;;;5011974;28;20065;-62
2022/06/02 04:52:38;;;;;;;9.90;3.60;;;;;;;;;;5007549;28;20041;-62
2022/06/02 04:55:30;;;;;;;6.53;3.33;;;;;;;;;;5011646;28;20037;-62
2022/06/02 04:58:25;;;;;;;6.78;3.17;;;;;;;;;;5004390;28;20054;-62
2022/06/02 05:01:00;;;;;;;8.25;4.03;;;;;;;;;;4990380;28;20073;-62
2022/06/02 05:03:29;;;;;;;8.00;3.40;;;;;;;;;;5011251;28;20108;-62
2022/06/02 05:05:58;;;;;;;5.03;3.00;;;;;;;;;;5011836;28;20070;-62
2022/06/02 05:08:39;;;;;;;6.00;3.22;;;;;;;;;;5017909;28;20044;-62
2022/06/02 05:11:12;;;;;;;7.85;4.05;;;;;;;;;;5005959;28;20073;-62
2022/06/02 05:13:57;;;;;;;6.53;3.90;;;;;;;;;;5011111;28;20026;-61
2022/06/02 05:16:34;;;;;;;11.88;3.83;;;;;;;;;;5007809;28;20383;-62
2022/06/02 05:19:12;;;;;;;9.23;4.55;;;;;;;;;;5031267;28;20096;-61
2022/06/02 05:21:57;;;;;;;5.72;3.47;;;;;;;;;;5044553;28;20021;-62
2022/06/02 05:24:35;;;;;;;5.70;3.70;;;;;;;;;;5048094;28;20437;-62
2022/06/02 05:27:01;;;;;;;5.28;3.47;;;;;;;;;;5044296;28;20025;-62
2022/06/02 05:29:40;;;;;;;9.38;4.35;;;;;;;;;;5050496;28;20520;-62
2022/06/02 05:32:12;;;;;;;7.63;3.75;;;;;;;;;;5053653;28;20025;-62
2022/06/02 05:34:57;;;;;;;12.77;4.55;;;;;;;;;;5049487;28;20057;-62
2022/06/02 05:37:38;;;;;;;8.50;4.00;;;;;;;;;;5057438;28;20545;-62
2022/06/02 05:40:20;;;;;;;9.43;3.97;;;;;;;;;;5047044;28;20040;-62
2022/06/02 05:43:01;;;;;;;10.68;4.53;;;;;;;;;;5043889;28;20032;-62
2022/06/02 05:45:43;;;;;;;9.60;4.63;;;;;;;;;;5052219;28;20021;-62
2022/06/02 05:48:24;;;;;;;16.33;4.80;;;;;;;;;;5045634;28;20083;-62
2022/06/02 05:50:53;;;;;;;6.82;4.38;;;;;;;;;;5047196;28;20024;-62
2022/06/02 05:53:34;;;;;;;9.85;4.80;;;;;;;;;;5052379;28;20067;-62
2022/06/02 05:56:03;;;;;;;7.75;4.20;;;;;;;;;;5052911;28;20419;-62
2022/06/02 05:58:39;;;;;;;6.47;4.57;;;;;;;;;;5049812;28;20051;-62
2022/06/02 06:01:17;;;;;;;11.85;6.53;;;;;;;;;;5045603;28;20033;-62
2022/06/02 06:03:44;;;;;;;19.17;9.73;;;;;;;;;;5049408;28;20029;-62
2022/06/02 06:06:10;;;;;;;21.05;10.70;;;;;;;;;;5051332;28;20103;-62
2022/06/02 06:08:37;;;;;;;14.60;7.63;;;;;;;;;;5052134;28;20395;-62
2022/06/02 06:11:25;;;;;;;14.27;6.10;;;;;;;;;;5051871;28;20024;-62
2022/06/02 06:14:02;;;;;;;14.30;5.22;;;;;;;;;;5051948;28;20033;-62
2022/06/02 06:16:31;;;;;;;11.50;5.07;;;;;;;;;;5057123;28;20440;-64
2022/06/02 06:19:06;;;;;;;8.10;4.93;;;;;;;;;;5058241;28;20024;-62
2022/06/02 06:21:44;;;;;;;13.50;7.90;;;;;;;;;;5050102;28;20036;-63
2022/06/02 06:24:23;;;;;;;15.45;6.53;;;;;;;;;;5039680;28;20400;-63
2022/06/02 06:27:09;;;;;;;13.23;5.75;;;;;;;;;;5051184;28;20354;-62
2022/06/02 06:29:37;;;;;;;9.43;5.57;;;;;;;;;;5048277;28;20473;-62
2022/06/02 06:32:09;;;;;;;12.25;5.65;;;;;;;;;;5050642;28;20067;-62
2022/06/02 06:34:44;;;;;;;10.07;4.95;;;;;;;;;;5050831;28;20040;-62
2022/06/02 06:37:20;;;;;;;7.88;4.57;;;;;;;;;;5051441;28;20120;-62
2022/06/02 06:39:56;;;;;;;6.82;4.47;;;;;;;;;;5049333;28;20025;-62
2022/06/02 06:42:41;;;;;;;12.02;5.28;;;;;;;;;;5046887;28;20066;-62
2022/06/02 06:45:11;;;;;;;12.88;5.97;;;;;;;;;;5050493;28;20021;-62
2022/06/02 06:47:40;;;;;;;12.75;5.13;;;;;;;;;;5049733;28;20121;-62
2022/06/02 06:50:11;;;;;;;14.45;4.45;;;;;;;;;;5049604;28;20067;-62
2022/06/02 06:52:47;;;;;;;15.38;5.18;;;;;;;;;;5050723;28;20115;-62
2022/06/02 06:55:22;;;;;;;8.40;5.32;;;;;;;;;;5047842;28;20123;-62
2022/06/02 06:58:02;;;;;;;8.05;4.00;;;;;;;;;;5047808;28;20064;-62
2022/06/02 07:00:51;;;;;;;7.95;4.32;;;;;;;;;;5042508;28;20025;-62
2022/06/02 07:03:42;;;;;;;12.57;5.05;;;;;;;;;;5047751;28;20392;-62
2022/06/02 07:06:17;;;;;;;14.55;5.00;;;;;;;;;;5042450;28;20090;-62
2022/06/02 07:09:01;;;;;;;7.72;4.80;;;;;;;;;;5044474;28;20524;-62
2022/06/02 07:14:23;;;;;;;9.73;4.70;;;;;;;;;;5045944;28;20037;-62
2022/06/02 07:16:55;;;;;;;9.90;4.10;;;;;;;;;;5045512;28;20648;-62
2022/06/02 07:19:27;;;;;;;13.00;4.20;;;;;;;;;;5038468;28;20041;-63
2022/06/02 07:21:58;;;;;;;7.22;3.70;;;;;;;;;;5043910;28;20017;-63
2022/06/02 07:24:43;;;;;;;10.00;3.38;;;;;;;;;;5045477;28;20055;-62
2022/06/02 07:27:12;;;;;;;9.10;3.03;;;;;;;;;;5049272;28;20025;-63
2022/06/02 07:29:45;;;;;;;12.18;2.88;;;;;;;;;;5047627;28;20099;-62
2022/06/02 07:32:17;;;;;;;7.25;2.70;;;;;;;;;;5049412;28;20035;-62
2022/06/02 07:34:46;;;;;;;7.68;3.13;;;;;;;;;;5046740;28;20075;-62
2022/06/02 07:37:12;;;;;;;9.75;3.38;;;;;;;;;;5049945;28;20035;-62
2022/06/02 07:39:38;;;;;;;4.97;2.50;;;;;;;;;;5044503;28;20029;-62
2022/06/02 07:42:16;;;;;;;9.23;3.30;;;;;;;;;;5042974;28;20031;-62
2022/06/02 07:44:45;;;;;;;7.72;3.72;;;;;;;;;;5047033;28;20438;-62
2022/06/02 07:47:30;;;;;;;9.25;4.07;;;;;;;;;;5047430;28;20029;-62
2022/06/02 07:50:08;;;;;;;7.70;3.53;;;;;;;;;;5044743;28;20028;-62
2022/06/02 07:52:43;;;;;;;3.08;2.53;;;;;;;;;;5049988;28;20052;-62
2022/06/02 07:55:28;;;;;;;6.82;3.25;;;;;;;;;;5050788;28;20068;-62
2022/06/02 07:57:58;;;;;;;8.48;3.08;;;;;;;;;;5042281;28;20464;-62
2022/06/02 08:00:28;;;;;;;7.13;3.47;;;;;;;;;;5048624;28;20037;-62
2022/06/02 08:03:02;;;;;;;8.27;2.55;;;;;;;;;;5043455;28;20017;-63
2022/06/02 08:05:47;;;;;;;5.05;2.58;;;;;;;;;;5052717;28;20032;-63
2022/06/02 08:08:17;;;;;;;10.65;3.05;;;;;;;;;;5047448;28;20068;-62
2022/06/02 08:10:47;;;;;;;5.82;2.55;;;;;;;;;;5050278;28;20044;-62
2022/06/02 08:13:34;;;;;;;8.13;2.40;;;;;;;;;;5044591;28;20018;-63
2022/06/02 08:16:00;;;;;;;7.97;2.92;;;;;;;;;;5042983;28;20392;-63
2022/06/02 08:18:39;;;;;;;3.70;2.33;;;;;;;;;;5045994;28;20033;-62
2022/06/02 08:21:44;;;;;;;3.78;2.22;;;;;;;;;;5044758;28;20047;-63
2022/06/02 08:24:28;;;;;;;8.68;2.70;;;;;;;;;;4982830;28;20389;-63
2022/06/02 08:27:00;;;;;;;6.80;2.40;;;;;;;;;;4990269;28;20034;-63
2022/06/02 08:29:28;;;;;;;7.47;2.10;;;;;;;;;;4985120;28;20495;-62
2022/06/02 08:32:06;;;;;;;5.93;2.38;;;;;;;;;;4990887;28;20824;-63
2022/06/02 08:34:38;;;;;;;3.35;1.85;;;;;;;;;;4990949;28;20030;-62
2022/06/02 08:37:20;;;;;;;6.57;1.95;;;;;;;;;;4990201;28;20657;-62
2022/06/02 08:39:56;;;;;;;4.75;2.13;;;;;;;;;;4990497;28;20569;-62
2022/06/02 08:42:24;;;;;;;5.43;1.90;;;;;;;;;;4985989;28;20088;-63
2022/06/02 08:45:07;;;;;;;6.90;2.30;;;;;;;;;;4990950;28;20046;-62
2022/06/02 08:47:42;;;;;;;8.25;1.90;;;;;;;;;;4990548;28;20514;-63
2022/06/02 08:50:11;;;;;;;7.13;2.15;;;;;;;;;;4987720;28;20165;-62
2022/06/02 08:52:43;;;;;;;5.57;2.20;;;;;;;;;;4988200;28;20053;-62
2022/06/02 08:55:12;;;;;;;3.28;1.70;;;;;;;;;;5025040;28;20505;-63
2022/06/02 08:57:41;;;;;;;9.15;2.00;;;;;;;;;;5051231;28;20034;-63
2022/06/02 09:00:07;;;;;;;7.07;1.80;;;;;;;;;;5051722;28;20081;-63
2022/06/02 09:02:52;;;;;;;5.78;2.10;;;;;;;;;;5052497;28;20017;-63
2022/06/02 09:05:36;;;;;;;2.97;1.52;;;;;;;;;;5044167;28;20025;-63
2022/06/02 09:08:11;;;;;;;4.68;1.80;;;;;;;;;;5051422;28;20358;-63
2022/06/02 09:10:40;;;;;;;6.25;1.80;;;;;;;;;;5052312;28;20036;-63
2022/06/02 09:13:25;;;;;;;6.97;1.92;;;;;;;;;;5051787;28;20033;-63
2022/06/02 09:16:10;;;;;;;4.22;2.00;;;;;;;;;;5051805;28;20036;-63
2022/06/02 09:18:36;;;;;;;4.75;1.70;;;;;;;;;;5051757;28;20154;-63
2022/06/02 09:21:08;;;;;;;7.18;2.25;;;;;;;;;;5051984;28;20401;-63
2022/06/02 09:23:40;;;;;;;4.93;2.50;;;;;;;;;;5051299;28;20036;-63
2022/06/02 09:26:12;;;;;;;5.45;1.92;;;;;;;;;;5051231;28;20053;-63
2022/06/02 09:28:45;;;;;;;6.82;1.80;;;;;;;;;;5059088;28;20119;-63
2022/06/02 09:31:21;;;;;;;5.93;1.67;;;;;;;;;;5051432;28;20599;-63
2022/06/02 09:33:56;;;;;;;5.00;1.98;;;;;;;;;;5050348;28;20052;-63
2022/06/02 09:36:31;;;;;;;6.38;1.88;;;;;;;;;;5044455;28;20021;-63
2022/06/02 09:38:57;;;;;;;7.47;1.70;;;;;;;;;;5050948;28;20029;-63
2022/06/02 09:41:29;;;;;;;7.43;2.17;;;;;;;;;;5051541;28;20036;-63
2022/06/02 09:44:04;;;;;;;3.90;2.00;;;;;;;;;;5051563;28;20057;-63
2022/06/02 09:46:45;;;;;;;3.38;1.92;;;;;;;;;;5045133;28;20025;-63
2022/06/02 09:49:17;;;;;;;5.63;1.42;;;;;;;;;;5050916;28;20060;-63
2022/06/02 09:51:47;;;;;;;5.43;1.43;;;;;;;;;;5051657;28;20029;-63
2022/06/02 09:54:26;;;;;;;4.82;1.63;;;;;;;;;;5050836;28;20271;-63
2022/06/02 10:00:08;;;;;;;4.65;1.85;;;;;;;;;;5049226;28;20108;-64
2022/06/02 10:02:40;;;;;;;4.10;1.60;;;;;;;;;;5045297;28;20029;-64
2022/06/02 10:05:24;;;;;;;8.45;2.22;;;;;;;;;;5049658;28;20040;-64
2022/06/02 10:08:01;;;;;;;5.20;1.60;;;;;;;;;;5046623;28;20079;-64
2022/06/02 10:10:27;;;;;;;3.70;2.00;;;;;;;;;;5050712;28;20041;-64
2022/06/02 10:13:02;;;;;;;4.68;1.90;;;;;;;;;;5051118;28;20062;-64
2022/06/02 10:15:34;;;;;;;6.47;1.27;;;;;;;;;;5050765;28;20470;-64
2022/06/02 10:18:09;;;;;;;6.13;1.50;;;;;;;;;;5050041;28;20029;-64
2022/06/02 10:20:56;;;;;;;4.00;1.83;;;;;;;;;;5072088;28;20029;-64
2022/06/02 10:23:38;;;;;;;3.92;1.70;;;;;;;;;;5050085;28;20044;-64
2022/06/02 10:26:07;;;;;;;7.68;1.60;;;;;;;;;;5051479;28;20025;-64
2022/06/02 10:28:41;;;;;;;4.32;1.70;;;;;;;;;;5045471;28;20489;-64
2022/06/02 10:31:24;;;;;;;8.45;1.83;;;;;;;;;;5057145;28;20436;-64
2022/06/02 10:33:51;;;;;;;7.30;1.67;;;;;;;;;;5037389;28;20035;-64
2022/06/02 10:36:29;;;;;;;4.32;1.55;;;;;;;;;;5050805;28;20079;-64
2022/06/02 10:38:58;;;;;;;9.90;2.00;;;;;;;;;;5046033;28;20032;-64
2022/06/02 10:41:54;;;;;;;6.22;1.40;;;;;;;;;;5050348;28;20051;-64
2022/06/02 10:44:29;;;;;;;5.68;1.50;;;;;;;;;;5031039;28;20040;-64
2022/06/02 10:47:14;;;;;;;3.03;1.80;;;;;;;;;;5051856;28;20029;-64
2022/06/02 10:49:58;;;;;;;3.90;1.60;;;;;;;;;;5053353;28;20120;-64
2022/06/02 10:52:40;;;;;;;4.55;1.70;;;;;;;;;;5050771;28;20393;-64
2022/06/02 10:55:21;;;;;;;4.10;1.60;;;;;;;;;;5054568;28;20037;-64
2022/06/02 10:58:11;;;;;;;6.07;1.98;;;;;;;;;;5048094;28;20041;-64
2022/06/02 11:00:56;;;;;;;4.93;1.60;;;;;;;;;;5045402;28;20056;-64
2022/06/02 11:03:41;;;;;;;5.85;1.40;;;;;;;;;;5034570;28;20094;-64
2022/06/02 11:06:26;;;;;;;3.78;1.70;;;;;;;;;;5045983;28;20078;-64
2022/06/02 11:09:20;;;;;;;5.43;1.50;;;;;;;;;;5051457;28;20037;-64
2022/06/02 11:12:07;;;;;;;3.13;1.58;;;;;;;;;;5040261;28;20123;-64
2022/06/02 11:14:52;;;;;;;2.92;1.70;;;;;;;;;;5050228;28;20070;-64
2022/06/02 11:17:37;;;;;;;9.60;2.10;;;;;;;;;;5050651;28;20025;-64
2022/06/02 11:20:22;;;;;;;4.78;1.38;;;;;;;;;;5047517;28;20509;-64
2022/06/02 11:23:07;;;;;;;5.57;2.08;;;;;;;;;;5048462;28;20040;-64
2022/06/02 11:25:52;;;;;;;2.97;1.10;;;;;;;;;;5046869;28;20066;-64
2022/06/02 11:28:21;;;;;;;4.90;1.58;;;;;;;;;;5055721;28;20044;-64
2022/06/02 11:30:50;;;;;;;3.03;1.63;;;;;;;;;;5051536;28;20036;-64
2022/06/02 11:33:35;;;;;;;4.45;1.88;;;;;;;;;;5056907;28;20029;-64
2022/06/02 11:36:05;;;;;;;3.22;1.50;;;;;;;;;;5054684;28;20083;-64
2022/06/02 11:38:31;;;;;;;4.32;1.65;;;;;;;;;;5051416;28;20033;-61
2022/06/02 11:41:03;;;;;;;4.88;1.88;;;;;;;;;;5054968;28;20064;-62
2022/06/02 11:43:44;;;;;;;3.90;1.55;;;;;;;;;;5054664;28;20029;-61
2022/06/02 11:46:16;;;;;;;6.20;1.40;;;;;;;;;;5055011;28;20060;-61
2022/06/02 11:48:58;;;;;;;3.35;1.45;;;;;;;;;;5054420;28;20048;-62
2022/06/02 11:51:43;;;;;;;2.00;1.20;;;;;;;;;;5045884;28;20034;-61
2022/06/02 11:54:17;;;;;;;4.40;1.35;;;;;;;;;;5046302;28;20044;-61
2022/06/02 11:57:19;;;;;;;5.07;1.35;;;;;;;;;;5044870;28;20037;-61
2022/06/02 11:59:57;;;;;;;4.60;1.40;;;;;;;;;;5001796;28;20527;-61
2022/06/02 12:02:42;;;;;;;3.80;1.58;;;;;;;;;;4981773;28;20089;-62
2022/06/02 12:05:27;;;;;;;3.45;1.40;;;;;;;;;;4975633;28;20042;-61
2022/06/02 12:08:12;;;;;;;6.68;1.60;;;;;;;;;;4986151;28;20041;-61
2022/06/02 12:10:56;;;;;;;5.07;1.30;;;;;;;;;;4977756;28;20031;-62
2022/06/02 12:13:55;;;;;;;2.67;1.42;;;;;;;;;;4999732;28;20091;-61
2022/06/02 12:16:21;;;;;;;4.55;1.60;;;;;;;;;;4967307;28;20046;-62
2022/06/02 12:19:06;;;;;;;4.55;1.42;;;;;;;;;;4968092;28;20041;-62
2022/06/02 12:21:54;;;;;;;5.05;1.42;;;;;;;;;;4967361;28;20035;-61
2022/06/02 12:24:40;;;;;;;5.10;1.60;;;;;;;;;;4967505;28;20055;-61
2022/06/02 12:27:24;;;;;;;6.22;1.30;;;;;;;;;;4971327;28;20046;-62
2022/06/02 12:29:57;;;;;;;6.57;1.30;;;;;;;;;;4969271;28;20511;-62
2022/06/02 12:32:23;;;;;;;;;;;;;;;;;;4965801;28;20133;-61
2022/06/02 12:34:58;;;;;;;5.18;1.20;;;;;;;;;;5014668;28;19984;-61
2022/06/02 12:37:33;;;;;;;3.83;1.30;;;;;;;;;;5022073;28;20038;-61
2022/06/02 12:40:08;;;;;;;2.38;1.40;;;;;;;;;;5018050;28;20049;-61
2022/06/02 12:42:40;;;;;;;5.38;1.40;;;;;;;;;;5026515;28;20048;-61
2022/06/02 12:45:18;;;;;;;3.20;1.55;;;;;;;;;;5018744;28;20038;-61
2022/06/02 12:47:51;;;;;;;4.93;1.58;;;;;;;;;;5025462;28;20029;-61
2022/06/02 12:50:40;;;;;;;3.38;1.30;;;;;;;;;;5016951;28;20129;-61
2022/06/02 12:53:06;;;;;;;5.88;1.55;;;;;;;;;;5051540;28;21219;-61
2022/06/02 12:55:53;;;;;;;5.15;1.42;;;;;;;;;;5052650;28;20370;-62
2022/06/02 12:58:44;;;;;;;3.22;1.40;;;;;;;;;;5010294;28;20073;-61
2022/06/02 13:01:28;;;;;;;3.67;1.88;;;;;;;;;;5005952;28;20072;-61
2022/06/02 13:04:13;;;;;;;1.88;1.35;;;;;;;;;;5003258;28;20038;-61
2022/06/02 13:06:57;;;;;;;3.53;1.35;;;;;;;;;;5008285;28;20057;-61
2022/06/02 13:09:42;;;;;;;5.93;1.30;;;;;;;;;;5010541;28;20048;-61
2022/06/02 13:12:31;;;;;;;3.50;1.58;;;;;;;;;;5005373;28;20029;-61
2022/06/02 13:15:05;;;;;;;7.78;1.67;;;;;;;;;;5007592;28;20036;-61
2022/06/02 13:17:50;;;;;;;2.28;1.23;;;;;;;;;;5009973;28;20121;-61
2022/06/02 13:20:28;;;;;;;4.13;1.38;;;;;;;;;;5005397;28;20065;-61
2022/06/02 13:23:13;;;;;;;5.28;1.60;;;;;;;;;;5009605;28;20050;-61
2022/06/02 13:25:48;;;;;;;5.88;1.40;;;;;;;;;;5009760;28;20034;-60
2022/06/02 13:28:20;;;;;;;5.28;1.52;;;;;;;;;;5009107;28;20049;-61
2022/06/02 13:31:10;;;;;;;6.38;1.58;;;;;;;;;;5008253;28;20037;-61
2022/06/02 13:33:55;;;;;;;4.10;1.13;;;;;;;;;;4998282;28;20046;-61
2022/06/02 13:36:33;;;;;;;1.67;1.20;;;;;;;;;;5036581;28;20636;-61
2022/06/02 13:39:02;;;;;;;4.05;1.27;;;;;;;;;;5051686;28;20033;-61
2022/06/02 13:41:47;;;;;;;4.70;1.38;;;;;;;;;;5051645;28;20033;-61
2022/06/02 13:44:40;;;;;;;5.13;1.20;;;;;;;;;;5050988;28;20039;-61
2022/06/02 13:47:23;;;;;;;3.30;1.30;;;;;;;;;;5052360;28;20040;-61
2022/06/02 13:49:55;;;;;;;2.38;1.20;;;;;;;;;;5051876;28;20029;-61
2022/06/02 13:52:40;;;;;;;3.42;1.48;;;;;;;;;;5051475;28;20044;-61
2022/06/02 13:58:14;;;;;;;3.95;1.77;;;;;;;;;;5049146;28;20068;-63
2022/06/02 14:00:59;;;;;;;6.28;1.65;;;;;;;;;;5050955;28;20039;-63
2022/06/02 14:03:32;;;;;;;2.45;1.20;;;;;;;;;;5043821;28;20025;-63
2022/06/02 14:06:06;;;;;;;3.03;1.20;;;;;;;;;;5051106;28;20036;-63
2022/06/02 14:08:44;;;;;;;3.08;1.27;;;;;;;;;;5044799;28;20039;-63
2022/06/02 14:11:29;;;;;;;5.03;1.85;;;;;;;;;;5050674;28;20025;-65
2022/06/02 14:14:01;;;;;;;7.70;1.38;;;;;;;;;;5050878;28;20385;-66
2022/06/02 14:16:39;;;;;;;2.95;1.30;;;;;;;;;;5054874;28;20036;-65
2022/06/02 14:19:23;;;;;;;3.20;1.30;;;;;;;;;;5050362;28;20497;-65
2022/06/02 14:21:58;;;;;;;3.35;1.30;;;;;;;;;;5050758;28;20021;-65
2022/06/02 14:24:43;;;;;;;3.00;1.55;;;;;;;;;;5048195;28;20029;-66
2022/06/02 14:27:16;;;;;;;3.10;1.30;;;;;;;;;;5047674;28;20428;-65
2022/06/02 14:29:52;;;;;;;5.65;1.70;;;;;;;;;;5050782;28;20098;-66
2022/06/02 14:32:27;;;;;;;4.97;1.55;;;;;;;;;;5050277;28;20029;-68
2022/06/02 14:35:06;;;;;;;5.43;1.40;;;;;;;;;;5050735;28;20036;-67
2022/06/02 14:37:34;;;;;;;3.83;2.17;;;;;;;;;;5047939;28;20469;-66
2022/06/02 14:40:14;;;;;;;11.48;2.10;;;;;;;;;;5055139;28;20045;-66
2022/06/02 14:45:39;;;;;;;5.00;2.15;;;;;;;;;;5043044;28;20041;-66
2022/06/02 14:48:20;;;;;;;5.18;2.13;;;;;;;;;;5048076;28;20044;-66
2022/06/02 14:50:55;;;;;;;6.90;2.45;;;;;;;;;;5050715;28;20120;-66
2022/06/02 14:53:24;;;;;;;4.55;1.75;;;;;;;;;;5050012;28;20366;-67
2022/06/02 14:56:10;;;;;;;4.93;1.70;;;;;;;;;;5049701;28;20497;-66
2022/06/02 14:58:52;;;;;;;10.02;2.47;;;;;;;;;;5046983;28;20079;-66
2022/06/02 15:01:24;;;;;;;8.32;2.65;;;;;;;;;;5049974;28;20390;-66
2022/06/02 15:04:02;;;;;;;6.38;2.72;;;;;;;;;;5050104;28;20142;-66
2022/06/02 15:06:29;;;;;;;5.70;2.70;;;;;;;;;;5048469;28;20033;-66
2022/06/02 15:08:58;;;;;;;5.95;3.00;;;;;;;;;;5046941;28;20071;-66
2022/06/02 15:11:25;;;;;;;5.70;2.90;;;;;;;;;;5044554;28;20032;-66
2022/06/02 15:14:13;;;;;;;5.80;2.50;;;;;;;;;;5043509;28;20032;-66
2022/06/02 15:16:39;;;;;;;4.15;2.30;;;;;;;;;;5053490;28;20485;-67
2022/06/02 15:19:05;;;;;;;5.38;2.72;;;;;;;;;;5037481;28;20515;-67
2022/06/02 15:21:34;;;;;;;7.15;2.83;;;;;;;;;;5049509;28;20397;-66
2022/06/02 15:24:11;;;;;;;7.70;2.30;;;;;;;;;;5045906;28;20029;-66
2022/06/02 15:26:40;;;;;;;4.45;2.35;;;;;;;;;;5043120;28;20028;-66
2022/06/02 15:29:06;;;;;;;7.85;2.80;;;;;;;;;;5042235;28;20551;-66
2022/06/02 15:31:36;;;;;;;6.22;2.55;;;;;;;;;;5045829;28;20037;-66
2022/06/02 15:34:02;;;;;;;4.60;2.65;;;;;;;;;;5046486;28;20500;-66
2022/06/02 15:36:37;;;;;;;6.70;2.75;;;;;;;;;;5042949;28;20025;-66
2022/06/02 15:39:03;;;;;;;7.45;2.10;;;;;;;;;;5042681;28;20061;-66
2022/06/02 15:41:52;;;;;;;7.78;2.65;;;;;;;;;;5041888;28;20025;-66
2022/06/02 15:44:38;;;;;;;5.85;2.20;;;;;;;;;;5031034;28;20045;-66
2022/06/02 15:47:22;;;;;;;5.80;2.20;;;;;;;;;;5041251;28;20025;-66
2022/06/02 15:49:49;;;;;;;3.53;1.70;;;;;;;;;;5046317;28;20057;-66
2022/06/02 15:52:37;;;;;;;9.38;2.40;;;;;;;;;;5045921;28;20025;-66
2022/06/02 15:55:06;;;;;;;5.10;1.83;;;;;;;;;;5039062;28;20053;-66
2022/06/02 15:57:41;;;;;;;4.03;1.70;;;;;;;;;;5039009;28;20072;-66
2022/06/02 16:00:08;;;;;;;4.47;1.75;;;;;;;;;;5034481;28;20045;-66
2022/06/02 16:02:55;;;;;;;7.90;2.25;;;;;;;;;;5036187;28;20037;-66